Time;durP1;ratioP1;P1;durP2;ratioP2;P2;SDS_P1;SDS_P2;PMS_P1;PMS_P2;Temp;Humidity;BMP_temperature;BMP_pressure;BME280_temperature;BME280_humidity;BME280_pressure;Samples;Min_cycle;Max_cycle;Signal;HPM_P1;HPM_P2
2021/04/21 00:02:00;;;;;;;1999.90;999.90;;;17.60;91.40;;;;;;5030482;28;20664;-56
2021/04/21 00:04:29;;;;;;;1999.90;999.90;;;17.50;91.60;;;;;;5030519;28;20168;-57
2021/04/21 00:06:57;;;;;;;1999.90;999.90;;;17.50;91.80;;;;;;5030442;28;20170;-57
2021/04/21 00:09:25;;;;;;;1999.90;999.90;;;17.50;91.90;;;;;;5030474;28;20197;-55
2021/04/21 00:11:55;;;;;;;1999.90;999.90;;;17.60;91.70;;;;;;5030319;28;20263;-52
2021/04/21 00:14:25;;;;;;;1999.90;999.90;;;17.60;91.60;;;;;;5030381;28;20667;-55
2021/04/21 00:16:57;;;;;;;1999.90;999.90;;;17.60;91.70;;;;;;5030324;28;20177;-57
2021/04/21 00:19:25;;;;;;;1999.90;999.90;;;17.50;92.00;;;;;;5030122;28;20165;-54
2021/04/21 00:21:56;;;;;;;1999.90;999.90;;;17.40;92.10;;;;;;5030190;28;20216;-57
2021/04/21 00:24:23;;;;;;;1999.90;999.90;;;17.50;92.20;;;;;;5030253;28;20241;-55
2021/04/21 00:26:51;;;;;;;1999.90;999.90;;;17.40;92.00;;;;;;5030209;28;20186;-57
2021/04/21 00:29:19;;;;;;;1999.90;999.90;;;17.40;92.10;;;;;;5030147;28;20230;-54
2021/04/21 00:31:48;;;;;;;1999.90;999.90;;;17.40;92.20;;;;;;5030119;28;20618;-54
2021/04/21 00:34:19;;;;;;;1999.90;999.90;;;17.30;92.60;;;;;;5030075;28;20228;-55
2021/04/21 00:36:49;;;;;;;1999.90;999.90;;;17.20;92.80;;;;;;5030174;28;20186;-51
2021/04/21 00:39:18;;;;;;;1999.90;999.90;;;17.20;92.90;;;;;;5029910;28;20165;-54
2021/04/21 00:42:18;;;;;;;1999.90;999.90;;;17.20;92.90;;;;;;5029936;28;20236;-57
2021/04/21 00:45:16;;;;;;;1999.90;999.90;;;17.20;92.90;;;;;;5028862;28;20166;-55
2021/04/21 00:48:09;;;;;;;1999.90;999.90;;;17.30;92.60;;;;;;5027141;28;20648;-56
2021/04/21 00:50:55;;;;;;;1999.90;999.90;;;17.30;92.50;;;;;;5029908;28;20162;-58
2021/04/21 00:53:40;;;;;;;1999.90;999.90;;;17.30;92.50;;;;;;5030446;28;20515;-57
2021/04/21 00:56:10;;;;;;;1999.90;999.90;;;17.20;92.50;;;;;;5033518;28;20150;-53
2021/04/21 00:59:14;;;;;;;1999.90;999.90;;;17.20;92.60;;;;;;5033330;28;20173;-58
2021/04/21 01:01:42;;;;;;;1999.90;999.90;;;17.20;92.40;;;;;;5033355;28;20190;-56
2021/04/21 01:04:10;;;;;;;1999.90;999.90;;;17.20;92.40;;;;;;5033313;28;20173;-58
2021/04/21 01:06:39;;;;;;;1999.90;999.90;;;17.20;92.30;;;;;;5033252;28;20179;-53
2021/04/21 01:09:07;;;;;;;1999.90;999.90;;;17.20;92.30;;;;;;5033249;28;20678;-55
2021/04/21 01:11:54;;;;;;;1999.90;999.90;;;17.10;92.20;;;;;;5033225;28;20166;-56
2021/04/21 01:14:26;;;;;;;1999.90;999.90;;;17.10;92.20;;;;;;5033234;28;20199;-52
2021/04/21 01:16:57;;;;;;;1999.90;999.90;;;17.00;92.20;;;;;;5033152;28;20169;-51
2021/04/21 01:19:51;;;;;;;1999.90;999.90;;;16.90;92.50;;;;;;5032984;28;20162;-50
2021/04/21 01:22:54;;;;;;;1999.90;999.90;;;16.90;92.50;;;;;;5033010;28;20205;-56
2021/04/21 01:25:43;;;;;;;1999.90;999.90;;;16.90;92.70;;;;;;5033007;28;20165;-57
2021/04/21 01:28:13;;;;;;;1999.90;999.90;;;16.90;92.80;;;;;;5032909;28;20237;-52
2021/04/21 01:30:43;;;;;;;1999.90;999.90;;;16.80;92.90;;;;;;5032962;28;20162;-51
2021/04/21 01:33:16;;;;;;;1999.90;999.90;;;16.80;93.00;;;;;;5032819;28;20166;-54
2021/04/21 01:35:54;;;;;;;1999.90;999.90;;;16.80;93.20;;;;;;5032975;28;20211;-51
2021/04/21 01:38:24;;;;;;;1999.90;999.90;;;16.80;93.10;;;;;;5033039;28;20536;-53
2021/04/21 01:40:53;;;;;;;1999.90;999.90;;;16.80;93.10;;;;;;5032745;28;20223;-54
2021/04/21 01:43:23;;;;;;;1999.90;999.90;;;16.80;93.10;;;;;;5032642;28;20181;-53
2021/04/21 01:45:57;;;;;;;1999.90;999.90;;;16.80;93.30;;;;;;5033000;28;20169;-54
2021/04/21 01:48:25;;;;;;;1999.90;999.90;;;16.80;93.30;;;;;;5032633;28;20177;-53
2021/04/21 01:50:53;;;;;;;1999.90;999.90;;;16.70;93.60;;;;;;5032577;28;20733;-52
2021/04/21 01:53:42;;;;;;;1999.90;999.90;;;16.60;94.00;;;;;;5032586;28;20205;-55
2021/04/21 01:56:53;;;;;;;1999.90;999.90;;;16.70;93.50;;;;;;5032479;28;20170;-57
2021/04/21 01:59:30;;;;;;;1999.90;999.90;;;16.70;93.10;;;;;;5023723;28;20319;-57
2021/04/21 02:02:15;;;;;;;1999.90;999.90;;;16.80;93.60;;;;;;5031252;28;20217;-56
2021/04/21 02:05:08;;;;;;;1999.90;999.90;;;16.90;93.50;;;;;;5032241;28;20529;-51
2021/04/21 02:08:13;;;;;;;1999.90;999.90;;;16.80;93.60;;;;;;5032404;28;20228;-57
2021/04/21 02:11:13;;;;;;;1999.90;999.90;;;16.90;93.60;;;;;;5009566;28;20193;-53
2021/04/21 02:14:03;;;;;;;1999.90;999.90;;;16.80;93.40;;;;;;5032265;28;20170;-54
2021/04/21 02:17:03;;;;;;;1999.90;999.90;;;16.90;92.80;;;;;;5032293;28;20166;-54
2021/04/21 02:20:01;;;;;;;1999.90;999.90;;;16.80;93.30;;;;;;5031932;28;20174;-59
2021/04/21 02:22:36;;;;;;;1999.90;999.90;;;16.70;93.70;;;;;;5031937;28;20198;-52
2021/04/21 02:25:33;;;;;;;1999.90;999.90;;;16.60;93.90;;;;;;5031883;28;20169;-54
2021/04/21 02:28:17;;;;;;;1999.90;999.90;;;16.60;94.00;;;;;;5031827;28;20282;-57
2021/04/21 02:31:05;;;;;;;1999.90;999.90;;;16.60;93.90;;;;;;5032004;28;20193;-51
2021/04/21 02:33:44;;;;;;;1999.90;999.90;;;16.60;93.90;;;;;;5031925;28;20162;-55
2021/04/21 02:36:38;;;;;;;1999.90;999.90;;;16.60;94.00;;;;;;5032180;28;20153;-54
2021/04/21 02:39:28;;;;;;;1999.90;999.90;;;16.50;94.00;;;;;;5010972;28;20186;-59
2021/04/21 02:42:04;;;;;;;1999.90;999.90;;;16.50;94.20;;;;;;5031762;28;20193;-57
2021/04/21 02:44:42;;;;;;;1999.90;999.90;;;16.50;94.40;;;;;;5031727;28;20197;-54
2021/04/21 02:47:16;;;;;;;1999.90;999.90;;;16.50;94.50;;;;;;5031760;28;20210;-54
2021/04/21 02:50:10;;;;;;;1999.90;999.90;;;16.50;94.30;;;;;;5031650;28;20158;-58
2021/04/21 02:53:07;;;;;;;1999.90;999.90;;;16.60;94.10;;;;;;5031559;28;20158;-55
2021/04/21 02:55:52;;;;;;;1999.90;999.90;;;16.60;93.90;;;;;;5031548;28;20151;-56
2021/04/21 02:58:19;;;;;;;1999.90;999.90;;;16.60;93.90;;;;;;5031713;28;20166;-58
2021/04/21 03:01:18;;;;;;;1999.90;999.90;;;16.60;93.90;;;;;;5031430;28;20162;-59
2021/04/21 03:04:01;;;;;;;1999.90;999.90;;;16.60;93.70;;;;;;5031417;28;20181;-54
2021/04/21 03:06:37;;;;;;;1999.90;999.90;;;16.50;93.90;;;;;;5030353;28;20166;-53
2021/04/21 03:09:13;;;;;;;1999.90;999.90;;;16.60;93.90;;;;;;5031408;28;20218;-56
2021/04/21 03:11:41;;;;;;;1999.90;999.90;;;16.50;93.80;;;;;;5031352;28;20154;-54
2021/04/21 03:14:20;;;;;;;1999.90;999.90;;;16.50;93.80;;;;;;5031307;28;20174;-57
2021/04/21 03:16:49;;;;;;;1999.90;999.90;;;16.50;93.90;;;;;;5029480;28;20169;-58
2021/04/21 03:19:21;;;;;;;1999.90;999.90;;;16.50;93.80;;;;;;5031021;28;20184;-54
2021/04/21 03:21:54;;;;;;;1999.90;999.90;;;16.50;93.80;;;;;;5031154;28;20202;-58
2021/04/21 03:24:26;;;;;;;1999.90;999.90;;;16.50;94.00;;;;;;5031290;28;20218;-57
2021/04/21 03:26:58;;;;;;;1999.90;999.90;;;16.50;93.90;;;;;;5030151;28;20158;-56
2021/04/21 03:29:52;;;;;;;1999.90;999.90;;;16.50;93.80;;;;;;5031261;28;20169;-58
2021/04/21 03:32:27;;;;;;;1999.90;999.90;;;16.40;94.40;;;;;;5029409;28;20190;-58
2021/04/21 03:34:56;;;;;;;1999.90;999.90;;;16.30;94.80;;;;;;5031180;28;20584;-58
2021/04/21 03:37:48;;;;;;;1999.90;999.90;;;16.20;94.80;;;;;;5030991;28;20591;-57
2021/04/21 03:40:15;;;;;;;1999.90;999.90;;;16.10;95.20;;;;;;5030905;28;20605;-57
2021/04/21 03:42:43;;;;;;;1999.90;999.90;;;16.00;95.60;;;;;;5030792;28;20559;-54
2021/04/21 03:45:12;;;;;;;1999.90;999.90;;;15.80;96.10;;;;;;5030810;28;20166;-53
2021/04/21 03:47:40;;;;;;;1999.90;999.90;;;15.80;96.70;;;;;;5031026;28;20553;-58
2021/04/21 03:50:09;;;;;;;1999.90;999.90;;;15.70;96.90;;;;;;5030655;28;20269;-57
2021/04/21 03:52:52;;;;;;;1999.90;999.90;;;15.80;96.90;;;;;;5030607;28;20204;-58
2021/04/21 03:55:21;;;;;;;1999.90;999.90;;;15.80;96.70;;;;;;5030634;28;20214;-57
2021/04/21 03:57:53;;;;;;;1999.90;999.90;;;15.90;96.70;;;;;;5030541;28;20195;-52
2021/04/21 04:00:21;;;;;;;1999.90;999.90;;;16.00;96.60;;;;;;5030604;28;20170;-57
2021/04/21 04:03:04;;;;;;;1999.90;999.90;;;16.10;96.30;;;;;;5030337;28;20224;-57
2021/04/21 04:06:04;;;;;;;1999.90;999.90;;;16.10;96.00;;;;;;5030534;28;20162;-57
2021/04/21 04:08:43;;;;;;;1999.90;999.90;;;16.10;95.90;;;;;;5030536;28;20162;-56
2021/04/21 04:11:14;;;;;;;1999.90;999.90;;;16.10;95.80;;;;;;5030464;28;20251;-58
2021/04/21 04:13:47;;;;;;;1999.90;999.90;;;16.20;95.60;;;;;;5030284;28;20158;-54
2021/04/21 04:16:14;;;;;;;1999.90;999.90;;;16.20;95.80;;;;;;5030409;28;20186;-56
2021/04/21 04:18:43;;;;;;;1999.90;999.90;;;16.30;95.60;;;;;;5030345;28;20193;-51
2021/04/21 04:21:13;;;;;;;1999.90;999.90;;;16.20;95.30;;;;;;5029908;28;20573;-55
2021/04/21 04:23:42;;;;;;;1999.90;999.90;;;16.20;95.30;;;;;;5030226;28;20168;-51
2021/04/21 04:26:10;;;;;;;1999.90;999.90;;;16.20;95.30;;;;;;5030157;28;20624;-56
2021/04/21 04:28:37;;;;;;;1999.90;999.90;;;16.40;94.90;;;;;;5029049;28;20226;-57
2021/04/21 04:31:07;;;;;;;1999.90;999.90;;;16.50;94.20;;;;;;5030043;28;20249;-56
2021/04/21 04:33:35;;;;;;;1999.90;999.90;;;16.40;94.10;;;;;;5030179;28;20177;-57
2021/04/21 04:36:03;;;;;;;1999.90;999.90;;;16.40;94.00;;;;;;5030130;28;20640;-53
2021/04/21 04:38:30;;;;;;;1999.90;999.90;;;16.30;94.20;;;;;;5030174;28;20178;-56
2021/04/21 04:40:57;;;;;;;1999.90;999.90;;;16.30;94.20;;;;;;5029951;28;20197;-58
2021/04/21 04:43:24;;;;;;;1999.90;999.90;;;16.30;94.40;;;;;;5029881;28;20222;-56
2021/04/21 04:45:58;;;;;;;1999.90;999.90;;;16.30;94.50;;;;;;5029928;28;20166;-57
2021/04/21 04:49:15;;;;;;;1999.90;999.90;;;16.30;94.40;;;;;;5029888;28;20158;-54
2021/04/21 04:51:47;;;;;;;1999.90;999.90;;;16.40;94.50;;;;;;5027024;28;20182;-55
2021/04/21 04:54:17;;;;;;;1999.90;999.90;;;16.40;94.50;;;;;;5029746;28;20170;-57
2021/04/21 04:56:46;;;;;;;1999.90;999.90;;;16.50;94.40;;;;;;5029826;28;20187;-56
2021/04/21 04:59:13;;;;;;;1999.90;999.90;;;16.50;94.20;;;;;;5029801;28;20176;-54
2021/04/21 05:01:57;;;;;;;1999.90;999.90;;;16.50;94.20;;;;;;5029592;28;20629;-58
2021/04/21 05:04:36;;;;;;;1999.90;999.90;;;16.50;94.30;;;;;;5029800;28;20177;-58
2021/04/21 05:07:07;;;;;;;1999.90;999.90;;;16.50;94.20;;;;;;5029898;28;20162;-56
2021/04/21 05:09:42;;;;;;;1999.90;999.90;;;16.50;94.40;;;;;;5029708;28;20648;-56
2021/04/21 05:12:12;;;;;;;1999.90;999.90;;;16.50;94.50;;;;;;5029512;28;20635;-57
2021/04/21 05:14:43;;;;;;;1999.90;999.90;;;16.40;94.60;;;;;;5029601;28;20207;-53
2021/04/21 05:18:01;;;;;;;1999.90;999.90;;;16.40;94.60;;;;;;5029505;28;20154;-53
2021/04/21 05:21:02;;;;;;;1999.90;999.90;;;16.30;94.80;;;;;;5028996;28;20234;-52
2021/04/21 05:24:07;;;;;;;1999.90;999.90;;;16.30;94.90;;;;;;5029359;28;20275;-57
2021/04/21 05:26:42;;;;;;;1999.90;999.90;;;16.30;95.00;;;;;;5029453;28;20190;-55
2021/04/21 05:29:50;;;;;;;1999.90;999.90;;;16.40;94.70;;;;;;5029182;28;20174;-57
2021/04/21 05:32:29;;;;;;;1999.90;999.90;;;16.50;94.50;;;;;;5029316;28;20186;-56
2021/04/21 05:35:32;;;;;;;1999.90;999.90;;;16.40;94.50;;;;;;5029298;28;20169;-50
2021/04/21 05:38:36;;;;;;;1999.90;999.90;;;16.50;94.60;;;;;;5029188;28;20215;-55
2021/04/21 05:41:53;;;;;;;1999.90;999.90;;;16.50;94.80;;;;;;5032103;28;20166;-57
2021/04/21 05:44:55;;;;;;;1999.90;999.90;;;16.60;94.70;;;;;;5009341;28;20186;-56
2021/04/21 05:47:31;;;;;;;1999.90;999.90;;;16.60;94.70;;;;;;5032034;28;20584;-54
2021/04/21 05:50:22;;;;;;;1999.90;999.90;;;16.70;94.40;;;;;;5031944;28;20176;-57
2021/04/21 05:53:01;;;;;;;1999.90;999.90;;;16.80;94.30;;;;;;5031995;28;20170;-56
2021/04/21 05:55:46;;;;;;;1999.90;999.90;;;16.70;94.50;;;;;;5031567;28;20562;-55
2021/04/21 05:58:54;;;;;;;1999.90;999.90;;;16.70;94.60;;;;;;5031535;28;20168;-54
2021/04/21 06:01:47;;;;;;;1999.90;999.90;;;16.70;94.80;;;;;;5031419;28;20228;-56
2021/04/21 06:04:16;;;;;;;1999.90;999.90;;;16.60;95.00;;;;;;5036302;28;20189;-58
2021/04/21 06:06:43;;;;;;;1999.90;999.90;;;16.80;92.40;;;;;;5034113;28;20181;-59
2021/04/21 06:09:11;;;;;;;1999.90;999.90;;;17.10;92.70;;;;;;5027988;28;20176;-52
2021/04/21 06:11:39;;;;;;;1999.90;999.90;;;17.30;93.10;;;;;;5031558;28;20658;-48
2021/04/21 06:14:07;;;;;;;1999.90;999.90;;;17.50;92.60;;;;;;5031821;28;20533;-52
2021/04/21 06:16:37;;;;;;;1999.90;999.90;;;17.70;92.30;;;;;;5030673;28;20182;-48
2021/04/21 06:19:04;;;;;;;1999.90;999.90;;;17.80;92.00;;;;;;5031007;28;20174;-58
2021/04/21 06:21:37;;;;;;;1999.90;999.90;;;17.80;92.20;;;;;;5031204;28;20675;-54
2021/04/21 06:24:19;;;;;;;1999.90;999.90;;;17.60;92.70;;;;;;5029618;28;20167;-49
2021/04/21 06:26:46;;;;;;;1999.90;999.90;;;17.60;93.00;;;;;;5029872;28;20188;-58
2021/04/21 06:29:13;;;;;;;1999.90;999.90;;;17.70;92.70;;;;;;5030169;28;20174;-54
2021/04/21 06:31:44;;;;;;;1999.90;999.90;;;17.70;92.70;;;;;;5030641;28;20185;-51
2021/04/21 06:34:13;;;;;;;1999.90;999.90;;;17.80;92.70;;;;;;5031405;28;20205;-55
2021/04/21 06:36:43;;;;;;;1999.90;999.90;;;18.00;92.20;;;;;;5030877;28;20576;-55
2021/04/21 06:39:12;;;;;;;1999.90;999.90;;;18.10;91.90;;;;;;5031142;28;20580;-55
2021/04/21 06:41:39;;;;;;;1999.90;999.90;;;18.10;92.40;;;;;;5030452;28;20248;-55
2021/04/21 06:44:07;;;;;;;1999.90;999.90;;;18.20;92.00;;;;;;5030464;28;20524;-50
2021/04/21 06:46:34;;;;;;;1999.90;999.90;;;18.40;91.50;;;;;;5030661;28;20260;-53
2021/04/21 06:49:03;;;;;;;1999.90;999.90;;;18.40;91.40;;;;;;5030691;28;20170;-53
2021/04/21 06:51:35;;;;;;;1999.90;999.90;;;18.50;91.60;;;;;;5029871;28;20253;-42
2021/04/21 06:54:07;;;;;;;1999.90;999.90;;;19.00;90.60;;;;;;5030535;28;20159;-60
2021/04/21 06:56:36;;;;;;;1999.90;999.90;;;19.10;90.30;;;;;;5030684;28;20632;-58
2021/04/21 06:59:04;;;;;;;1999.90;999.90;;;19.10;89.50;;;;;;5031192;28;20187;-58
2021/04/21 07:01:32;;;;;;;1999.90;999.90;;;19.20;89.60;;;;;;5030511;28;20208;-58
2021/04/21 07:04:14;;;;;;;1999.90;999.90;;;19.20;88.90;;;;;;5030234;28;20174;-49
2021/04/21 07:06:42;;;;;;;1999.90;999.90;;;19.40;88.10;;;;;;5030349;28;20656;-56
2021/04/21 07:09:22;;;;;;;1999.90;999.90;;;19.70;86.60;;;;;;5030624;28;20173;-60
2021/04/21 07:12:00;;;;;;;1999.90;999.90;;;19.90;85.90;;;;;;5040984;28;20166;-60
2021/04/21 07:14:29;;;;;;;1999.90;999.90;;;20.10;84.90;;;;;;5053461;28;20170;-59
2021/04/21 07:16:58;;;;;;;1999.90;999.90;;;20.30;85.30;;;;;;5029893;28;20166;-63
2021/04/21 07:19:27;;;;;;;1999.90;999.90;;;20.40;84.40;;;;;;5029631;28;20638;-61
2021/04/21 07:21:55;;;;;;;1999.90;999.90;;;20.40;83.90;;;;;;5030254;28;20201;-62
2021/04/21 07:24:34;;;;;;;1999.90;999.90;;;20.40;84.40;;;;;;5029905;28;20621;-60
2021/04/21 07:27:09;;;;;;;1999.90;999.90;;;20.50;83.30;;;;;;5030263;28;20256;-60
2021/04/21 07:29:36;;;;;;;1999.90;999.90;;;20.80;82.00;;;;;;5029021;28;20239;-55
2021/04/21 07:32:28;;;;;;;1999.90;999.90;;;21.00;81.10;;;;;;5030129;28;20182;-54
2021/04/21 07:35:03;;;;;;;1999.90;999.90;;;21.10;80.80;;;;;;5029442;28;20243;-51
2021/04/21 07:37:42;;;;;;;1999.90;999.90;;;21.30;79.80;;;;;;5029905;28;20162;-52
2021/04/21 07:40:33;;;;;;;1999.90;999.90;;;21.40;79.00;;;;;;5029320;28;20177;-51
2021/04/21 07:43:15;;;;;;;1999.90;999.90;;;21.60;78.30;;;;;;5029946;28;20257;-57
2021/04/21 07:45:43;;;;;;;1999.90;999.90;;;21.80;77.10;;;;;;5029730;28;20154;-58
2021/04/21 07:48:34;;;;;;;1999.90;999.90;;;21.90;76.40;;;;;;5029776;28;20178;-51
2021/04/21 07:51:26;;;;;;;1999.90;999.90;;;22.20;76.20;;;;;;5030117;28;20663;-54
2021/04/21 07:54:02;;;;;;;1999.90;999.90;;;22.60;74.20;;;;;;5029603;28;20174;-59
2021/04/21 07:56:34;;;;;;;1999.90;999.90;;;22.90;71.50;;;;;;5028377;28;20255;-57
2021/04/21 07:59:33;;;;;;;1999.90;999.90;;;23.10;70.80;;;;;;5029187;28;20150;-59
2021/04/21 08:02:10;;;;;;;1999.90;999.90;;;23.40;69.70;;;;;;5039935;28;20266;-58
2021/04/21 08:04:51;;;;;;;1999.90;999.90;;;23.60;68.50;;;;;;5028760;28;20165;-54
2021/04/21 08:07:47;;;;;;;1999.90;999.90;;;23.90;67.10;;;;;;5029287;28;20173;-58
2021/04/21 08:10:23;;;;;;;1999.90;999.90;;;24.30;66.10;;;;;;5019247;28;20186;-54
2021/04/21 08:12:57;;;;;;;1999.90;999.90;;;24.70;64.30;;;;;;5027733;28;20363;-47
2021/04/21 08:15:32;;;;;;;1999.90;999.90;;;24.50;63.40;;;;;;5029002;28;20691;-56
2021/04/21 08:18:08;;;;;;;1999.90;999.90;;;25.10;62.30;;;;;;5029226;28;20165;-57
2021/04/21 08:20:36;;;;;;;1999.90;999.90;;;25.10;60.70;;;;;;5028292;28;20286;-45
2021/04/21 08:23:06;;;;;;;1999.90;999.90;;;25.20;60.70;;;;;;5009696;28;20263;-45
2021/04/21 08:25:33;;;;;;;1999.90;999.90;;;25.80;59.20;;;;;;5017551;28;20226;-48
2021/04/21 08:28:00;;;;;;;1999.90;999.90;;;25.90;58.80;;;;;;5028997;28;20178;-58
2021/04/21 08:30:28;;;;;;;1999.90;999.90;;;26.40;57.50;;;;;;5029221;28;20166;-47
2021/04/21 08:32:55;;;;;;;1999.90;999.90;;;26.20;59.00;;;;;;5028732;28;20202;-48
2021/04/21 08:35:22;;;;;;;1999.90;999.90;;;26.80;57.30;;;;;;5029818;27;20226;-58
2021/04/21 08:37:49;;;;;;;1999.90;999.90;;;27.60;55.50;;;;;;5029315;28;20257;-54
2021/04/21 08:40:26;;;;;;;1999.90;999.90;;;27.60;54.40;;;;;;5029111;28;20193;-55
2021/04/21 08:42:59;;;;;;;1999.90;999.90;;;28.10;54.00;;;;;;5029374;28;20357;-59
2021/04/21 08:45:26;;;;;;;1999.90;999.90;;;27.90;52.20;;;;;;5029097;28;20166;-52
2021/04/21 08:47:55;;;;;;;1999.90;999.90;;;27.90;52.70;;;;;;5029264;28;20174;-54
2021/04/21 08:50:24;;;;;;;1999.90;999.90;;;28.20;52.10;;;;;;5029349;28;20174;-55
2021/04/21 08:52:56;;;;;;;1999.90;999.90;;;28.60;51.40;;;;;;5029444;28;20201;-56
2021/04/21 08:55:26;;;;;;;1999.90;999.90;;;29.10;50.40;;;;;;5028703;28;20173;-45
2021/04/21 08:57:54;;;;;;;1999.90;999.90;;;29.40;48.70;;;;;;5028845;28;20489;-45
2021/04/21 09:00:21;;;;;;;1999.90;999.90;;;29.30;48.40;;;;;;5025570;28;20249;-46
2021/04/21 09:02:48;;;;;;;1999.90;999.90;;;29.10;48.40;;;;;;5027711;28;20338;-46
2021/04/21 09:05:18;;;;;;;1999.90;999.90;;;29.20;47.60;;;;;;5027324;28;20166;-48
2021/04/21 09:07:45;;;;;;;1999.90;999.90;;;29.40;48.00;;;;;;5027854;28;20631;-61
2021/04/21 09:10:16;;;;;;;1999.90;999.90;;;29.50;47.70;;;;;;5027034;28;20170;-67
2021/04/21 09:12:44;;;;;;;1999.90;999.90;;;29.40;47.40;;;;;;5028384;28;20199;-63
2021/04/21 09:15:13;;;;;;;1999.90;999.90;;;29.80;47.00;;;;;;5029844;28;20169;-64
2021/04/21 09:17:51;;;;;;;1999.90;999.90;;;29.80;46.60;;;;;;5030510;28;20170;-65
2021/04/21 09:20:21;;;;;;;1999.90;999.90;;;30.00;45.60;;;;;;5031104;28;20213;-68
2021/04/21 09:23:06;;;;;;;1999.90;999.90;;;30.10;45.20;;;;;;5031452;28;20193;-56
2021/04/21 09:25:38;;;;;;;1999.90;999.90;;;29.80;45.40;;;;;;5030993;28;20533;-57
2021/04/21 09:28:06;;;;;;;1999.90;999.90;;;29.70;45.50;;;;;;5032032;28;20166;-59
2021/04/21 09:30:36;;;;;;;1999.90;999.90;;;29.20;45.60;;;;;;5030345;28;20237;-57
2021/04/21 09:33:05;;;;;;;1999.90;999.90;;;29.60;45.70;;;;;;5030784;28;20241;-58
2021/04/21 09:35:37;;;;;;;1999.90;999.90;;;29.80;45.20;;;;;;5031161;28;20181;-55
2021/04/21 09:38:12;;;;;;;1999.90;999.90;;;29.80;44.10;;;;;;5031924;28;20252;-58
2021/04/21 09:40:52;;;;;;;1999.90;999.90;;;29.90;44.60;;;;;;5050155;28;20301;-57
2021/04/21 09:43:24;;;;;;;1999.90;999.90;;;30.30;43.70;;;;;;5011558;28;20221;-66
2021/04/21 09:45:54;;;;;;;1999.90;999.90;;;30.30;43.20;;;;;;5027341;28;20192;-63
2021/04/21 09:48:33;;;;;;;1999.90;999.90;;;30.30;43.20;;;;;;5029570;28;20638;-65
2021/04/21 09:51:00;;;;;;;1999.90;999.90;;;30.50;42.20;;;;;;5031319;28;20185;-66
2021/04/21 09:53:36;;;;;;;1999.90;999.90;;;30.50;42.20;;;;;;5031370;28;20170;-65
2021/04/21 09:56:09;;;;;;;1999.90;999.90;;;30.60;43.80;;;;;;5031974;28;20173;-62
2021/04/21 09:58:40;;;;;;;1999.90;999.90;;;30.80;41.60;;;;;;5029077;28;20170;-64
2021/04/21 10:01:26;;;;;;;1999.90;999.90;;;30.50;41.00;;;;;;5030926;28;20193;-63
2021/04/21 10:04:17;;;;;;;1999.90;999.90;;;30.50;41.80;;;;;;5028168;28;20205;-47
2021/04/21 10:06:48;;;;;;;1999.90;999.90;;;30.20;41.60;;;;;;5030773;28;20173;-52
2021/04/21 10:09:33;;;;;;;1999.90;999.90;;;30.00;41.40;;;;;;5031323;28;20170;-52
2021/04/21 10:12:19;;;;;;;1999.90;999.90;;;29.50;42.00;;;;;;5031333;28;20230;-48
2021/04/21 10:15:09;;;;;;;1999.90;999.90;;;29.50;43.30;;;;;;5030983;28;20177;-46
2021/04/21 10:17:47;;;;;;;1999.90;999.90;;;30.00;42.70;;;;;;5031340;28;20515;-47
2021/04/21 10:20:16;;;;;;;1999.90;999.90;;;30.50;41.80;;;;;;5030736;28;20236;-55
2021/04/21 10:22:45;;;;;;;1999.90;999.90;;;30.80;40.90;;;;;;5030122;28;20205;-51
2021/04/21 10:25:13;;;;;;;1999.90;999.90;;;30.90;40.50;;;;;;5030771;28;20173;-64
2021/04/21 10:27:41;;;;;;;1999.90;999.90;;;30.90;40.40;;;;;;5027164;28;20170;-51
2021/04/21 10:30:09;;;;;;;1999.90;999.90;;;30.60;41.30;;;;;;5030836;28;20223;-48
2021/04/21 10:32:37;;;;;;;1999.90;999.90;;;30.60;41.40;;;;;;5030853;28;20173;-45
2021/04/21 10:35:05;;;;;;;1999.90;999.90;;;30.70;41.30;;;;;;5029910;28;20227;-61
2021/04/21 10:37:37;;;;;;;1999.90;999.90;;;30.80;40.60;;;;;;5029329;28;20181;-64
2021/04/21 10:40:05;;;;;;;1999.90;999.90;;;30.60;40.70;;;;;;5030938;28;20322;-70
2021/04/21 10:42:50;;;;;;;1999.90;999.90;;;30.40;40.70;;;;;;5030247;28;20193;-62
2021/04/21 10:45:25;;;;;;;1999.90;999.90;;;30.30;41.90;;;;;;5029561;28;20150;-63
2021/04/21 10:47:53;;;;;;;1999.90;999.90;;;30.50;41.60;;;;;;5031173;28;20166;-62
2021/04/21 10:50:42;;;;;;;1999.90;999.90;;;30.70;41.10;;;;;;5030187;28;20256;-64
2021/04/21 10:53:44;;;;;;;1999.90;999.90;;;30.80;40.30;;;;;;5030257;28;20183;-59
2021/04/21 10:56:24;;;;;;;1999.90;999.90;;;30.80;40.20;;;;;;5028306;28;20178;-59
2021/04/21 10:58:55;;;;;;;1999.90;999.90;;;30.90;40.00;;;;;;5030843;28;20583;-61
2021/04/21 11:01:36;;;;;;;1999.90;999.90;;;30.60;40.50;;;;;;5030222;28;20293;-60
2021/04/21 11:04:05;;;;;;;1999.90;999.90;;;29.90;40.10;;;;;;5030686;28;20169;-56
2021/04/21 11:06:40;;;;;;;1999.90;999.90;;;29.60;40.90;;;;;;5044295;27;20527;-48
2021/04/21 11:09:09;;;;;;;1999.90;999.90;;;29.50;41.30;;;;;;5029702;28;20174;-56
2021/04/21 11:11:42;;;;;;;1999.90;999.90;;;29.40;41.60;;;;;;5038028;27;20173;-54
2021/04/21 11:14:11;;;;;;;1999.90;999.90;;;29.70;41.80;;;;;;5034010;28;20162;-56
2021/04/21 11:16:40;;;;;;;1999.90;999.90;;;30.10;40.80;;;;;;5049116;28;20233;-59
2021/04/21 11:19:18;;;;;;;1999.90;999.90;;;30.40;40.10;;;;;;5044206;28;20230;-59
2021/04/21 11:21:47;;;;;;;1999.90;999.90;;;30.50;39.60;;;;;;5030221;28;20241;-58
2021/04/21 11:24:15;;;;;;;1999.90;999.90;;;30.80;40.60;;;;;;5033963;27;20219;-54
2021/04/21 11:26:45;;;;;;;1999.90;999.90;;;30.90;39.80;;;;;;5097483;27;20176;-53
2021/04/21 11:29:28;;;;;;;1999.90;999.90;;;30.60;38.80;;;;;;5093643;27;20182;-56
2021/04/21 11:31:55;;;;;;;1999.90;999.90;;;30.30;39.50;;;;;;5029245;28;20616;-51
2021/04/21 11:34:27;;;;;;;1999.90;999.90;;;30.30;40.10;;;;;;5029228;28;20180;-59
2021/04/21 11:36:57;;;;;;;1999.90;999.90;;;30.30;39.30;;;;;;5027511;28;20178;-57
2021/04/21 11:39:42;;;;;;;1999.90;999.90;;;30.60;39.40;;;;;;5043791;28;21039;-56
2021/04/21 11:42:46;;;;;;;1999.90;999.90;;;30.70;39.60;;;;;;5048751;28;20228;-54
2021/04/21 11:45:19;;;;;;;1999.90;999.90;;;30.90;40.40;;;;;;5032450;28;20189;-56
2021/04/21 11:48:03;;;;;;;1999.90;999.90;;;30.90;38.30;;;;;;5030153;28;20168;-54
2021/04/21 11:50:38;;;;;;;1999.90;999.90;;;30.80;37.60;;;;;;5014903;28;20310;-50
2021/04/21 11:53:12;;;;;;;1999.90;999.90;;;31.20;37.80;;;;;;5029987;28;20531;-52
2021/04/21 11:58:27;;;;;;;1999.90;999.90;;;31.80;36.10;;;;;;5029346;28;20256;-60
2021/04/21 12:01:00;;;;;;;1999.90;999.90;;;32.10;35.50;;;;;;5029264;28;20166;-48
2021/04/21 12:03:36;;;;;;;1999.90;999.90;;;32.10;34.80;;;;;;5029562;28;20198;-56
2021/04/21 12:06:09;;;;;;;1999.90;999.90;;;32.20;34.70;;;;;;5029404;28;20193;-53
2021/04/21 12:08:38;;;;;;;1999.90;999.90;;;32.20;34.50;;;;;;5029449;28;20523;-62
2021/04/21 12:11:07;;;;;;;1999.90;999.90;;;32.30;34.00;;;;;;5029665;28;20173;-48
2021/04/21 12:13:44;;;;;;;1999.90;999.90;;;32.10;33.30;;;;;;5029339;28;20512;-45
2021/04/21 12:16:12;;;;;;;1999.90;999.90;;;32.10;33.60;;;;;;5029095;28;20521;-56
2021/04/21 12:18:42;;;;;;;1999.90;999.90;;;32.20;33.20;;;;;;5029196;28;20227;-58
2021/04/21 12:21:18;;;;;;;1999.90;999.90;;;32.20;33.30;;;;;;5028870;28;20693;-60
2021/04/21 12:23:47;;;;;;;1999.90;999.90;;;32.00;33.10;;;;;;5029365;28;20177;-60
2021/04/21 12:26:28;;;;;;;1999.90;999.90;;;31.70;34.00;;;;;;5028940;28;20166;-56
2021/04/21 12:29:05;;;;;;;1999.90;999.90;;;31.80;33.90;;;;;;5028587;28;20218;-56
2021/04/21 12:31:34;;;;;;;1999.90;999.90;;;31.70;33.60;;;;;;5026644;28;20199;-58
2021/04/21 12:34:04;;;;;;;1999.90;999.90;;;31.80;33.90;;;;;;5028723;28;20535;-58
2021/04/21 12:36:35;;;;;;;1999.90;999.90;;;32.00;33.60;;;;;;5029206;28;20197;-46
2021/04/21 12:39:11;;;;;;;1999.90;999.90;;;31.90;32.80;;;;;;5027062;28;20628;-42
2021/04/21 12:41:42;;;;;;;1999.90;999.90;;;31.30;33.00;;;;;;5028813;28;20212;-44
2021/04/21 12:44:19;;;;;;;1999.90;999.90;;;31.10;33.30;;;;;;5028584;28;20194;-41
2021/04/21 12:46:48;;;;;;;1999.90;999.90;;;31.10;33.90;;;;;;5028717;28;20212;-42